createdAt,value
2023-01-05T00:02:32.221Z,4.37
2023-01-05T00:05:17.681Z,4.40
2023-01-05T00:08:02.926Z,3.97
2023-01-05T00:11:06.885Z,4.85
2023-01-05T00:14:10.875Z,3.90
2023-01-05T00:17:15.197Z,4.10
2023-01-05T00:20:19.152Z,4.55
2023-01-05T00:23:05.733Z,3.75
2023-01-05T00:25:51.101Z,5.88
2023-01-05T00:28:36.573Z,4.25
2023-01-05T00:31:22.140Z,4.27
2023-01-05T00:34:07.775Z,2.72
2023-01-05T00:36:53.264Z,3.47
2023-01-05T00:39:38.747Z,3.83
2023-01-05T00:42:24.721Z,5.97
2023-01-05T00:45:13.429Z,3.17
2023-01-05T00:47:59.279Z,3.50
2023-01-05T00:50:46.705Z,4.75
2023-01-05T00:53:32.168Z,2.30
2023-01-05T00:56:18.133Z,2.70
2023-01-05T00:59:03.737Z,2.93
2023-01-05T01:01:51.524Z,3.90
2023-01-05T01:04:38.420Z,3.53
2023-01-05T01:07:24.386Z,3.60
2023-01-05T01:10:11.668Z,3.25
2023-01-05T01:12:57.405Z,3.23
2023-01-05T01:15:43.484Z,3.35
2023-01-05T01:18:31.253Z,3.03
2023-01-05T01:21:17.210Z,4.80
2023-01-05T01:24:03.201Z,3.55
2023-01-05T01:26:49.536Z,3.67
2023-01-05T01:29:35.350Z,3.58
2023-01-05T01:32:21.692Z,5.07
2023-01-05T01:35:08.599Z,3.13
2023-01-05T01:37:54.199Z,2.80
2023-01-05T01:40:41.508Z,2.87
2023-01-05T01:43:50.768Z,2.17
2023-01-05T01:46:38.374Z,3.75
2023-01-05T01:49:24.466Z,2.60
2023-01-05T01:52:10.790Z,3.97
2023-01-05T01:54:57.351Z,6.47
2023-01-05T01:57:45.237Z,2.88
2023-01-05T02:00:31.203Z,2.85
2023-01-05T02:03:17.297Z,3.25
2023-01-05T02:06:02.652Z,3.25
2023-01-05T02:08:48.863Z,2.07
2023-01-05T02:11:56.304Z,3.17
2023-01-05T02:15:01.257Z,4.35
2023-01-05T02:18:41.796Z,2.58
2023-01-05T02:21:42.522Z,2.78
2023-01-05T02:24:46.158Z,3.97
2023-01-05T02:28:10.488Z,3.35
2023-01-05T02:31:03.810Z,3.65
2023-01-05T02:34:24.669Z,3.40
2023-01-05T02:37:26.352Z,3.78
2023-01-05T02:40:24.800Z,3.07
2023-01-05T02:43:15.500Z,3.38
2023-01-05T02:46:03.648Z,3.22
2023-01-05T02:48:54.927Z,3.60
2023-01-05T02:51:45.230Z,2.67
2023-01-05T02:54:47.866Z,2.57
2023-01-05T02:57:47.386Z,2.33
2023-01-05T03:00:45.224Z,3.63
2023-01-05T03:03:38.190Z,3.00
2023-01-05T03:06:47.384Z,3.92
2023-01-05T03:09:38.791Z,2.73
2023-01-05T03:12:53.290Z,3.60
2023-01-05T03:15:44.023Z,2.75
2023-01-05T03:18:33.147Z,3.25
2023-01-05T03:21:18.993Z,3.00
2023-01-05T03:24:24.748Z,2.87
2023-01-05T03:27:31.357Z,2.67
2023-01-05T03:30:38.244Z,2.45
2023-01-05T03:34:16.248Z,3.25
2023-01-05T03:37:08.587Z,2.47
2023-01-05T03:39:54.413Z,2.90
2023-01-05T03:42:42.787Z,3.50
2023-01-05T03:45:44.344Z,3.22
2023-01-05T03:48:35.603Z,3.38
2023-01-05T03:51:21.084Z,2.65
2023-01-05T03:54:06.565Z,3.17
2023-01-05T03:56:54.690Z,2.80
2023-01-05T03:59:40.650Z,2.17
2023-01-05T04:02:27.135Z,4.63
2023-01-05T04:05:13.187Z,1.48
2023-01-05T04:07:59.028Z,2.93
2023-01-05T04:10:44.996Z,3.55
2023-01-05T04:13:32.765Z,2.63
2023-01-05T04:16:19.244Z,2.58
2023-01-05T04:19:06.746Z,3.90
2023-01-05T04:21:52.092Z,2.63
2023-01-05T04:24:39.022Z,2.88
2023-01-05T04:27:24.982Z,2.03
2023-01-05T04:30:11.185Z,2.75
2023-01-05T04:32:57.167Z,3.53
2023-01-05T04:35:44.078Z,2.60
2023-01-05T04:38:30.279Z,3.22
2023-01-05T04:41:16.126Z,4.15
2023-01-05T04:44:06.407Z,2.92
2023-01-05T04:46:52.271Z,4.28
2023-01-05T04:49:38.705Z,4.00
2023-01-05T04:52:25.511Z,2.88
2023-01-05T04:55:11.588Z,2.45
2023-01-05T04:57:58.278Z,4.50
2023-01-05T05:00:43.764Z,4.30
2023-01-05T05:03:32.947Z,5.10
2023-01-05T05:06:19.649Z,3.22
2023-01-05T05:09:07.416Z,4.03
2023-01-05T05:11:55.180Z,4.90
2023-01-05T05:14:42.233Z,4.65
2023-01-05T05:17:28.075Z,2.27
2023-01-05T05:20:14.771Z,5.00
2023-01-05T05:23:01.361Z,4.50
2023-01-05T05:25:51.849Z,4.95
2023-01-05T05:28:39.129Z,4.22
2023-01-05T05:31:24.920Z,3.73
2023-01-05T05:34:10.583Z,3.72
2023-01-05T05:36:56.184Z,3.85
2023-01-05T05:39:41.795Z,4.43
2023-01-05T05:42:27.157Z,3.78
2023-01-05T05:45:12.638Z,3.27
2023-01-05T05:47:58.253Z,3.67
2023-01-05T05:50:44.944Z,5.00
2023-01-05T05:53:30.417Z,3.35
2023-01-05T05:56:16.620Z,4.07
2023-01-05T05:59:02.078Z,3.43
2023-01-05T06:01:47.817Z,4.75
2023-01-05T06:04:33.556Z,2.00
2023-01-05T06:07:19.760Z,5.13
2023-01-05T06:10:06.212Z,5.95
2023-01-05T06:12:54.344Z,2.77
2023-01-05T06:15:40.178Z,5.45
2023-01-05T06:18:28.338Z,4.40
2023-01-05T06:21:14.032Z,4.65
2023-01-05T06:23:59.640Z,2.85
2023-01-05T06:26:46.074Z,4.73
2023-01-05T06:29:31.911Z,3.72
2023-01-05T06:32:17.171Z,2.80
2023-01-05T06:35:02.301Z,3.33
2023-01-05T06:37:47.655Z,3.47
2023-01-05T06:40:33.749Z,3.90
2023-01-05T06:43:19.956Z,5.13
2023-01-05T06:46:05.603Z,2.88
2023-01-05T06:48:51.517Z,5.80
2023-01-05T06:51:37.127Z,7.60
2023-01-05T06:54:22.725Z,4.63
2023-01-05T06:57:08.204Z,5.10
2023-01-05T06:59:53.941Z,8.02
2023-01-05T07:02:39.795Z,10.55
2023-01-05T07:05:25.261Z,5.32
2023-01-05T07:08:10.632Z,5.63
2023-01-05T07:10:56.485Z,6.50
2023-01-05T07:13:42.003Z,4.50
2023-01-05T07:16:27.887Z,6.10
2023-01-05T07:19:13.648Z,5.80
2023-01-05T07:21:59.369Z,3.30
2023-01-05T07:24:44.852Z,5.20
2023-01-05T07:27:30.222Z,7.72
2023-01-05T07:30:15.464Z,4.85
2023-01-05T07:33:01.067Z,4.60
2023-01-05T07:35:47.157Z,5.23
2023-01-05T07:38:33.112Z,3.50
2023-01-05T07:41:18.967Z,9.10
2023-01-05T07:44:05.162Z,4.07
2023-01-05T07:46:50.903Z,4.78
2023-01-05T07:49:36.500Z,4.43
2023-01-05T07:52:22.360Z,4.72
2023-01-05T07:55:08.547Z,3.20
2023-01-05T07:57:54.270Z,4.53
2023-01-05T08:00:39.640Z,4.82
2023-01-05T08:03:25.220Z,4.63
2023-01-05T08:06:14.083Z,4.10
2023-01-05T08:09:19.630Z,5.00
2023-01-05T08:12:05.705Z,2.88
2023-01-05T08:14:51.300Z,5.10
2023-01-05T08:17:37.026Z,5.47
2023-01-05T08:20:22.513Z,3.88
2023-01-05T08:23:07.996Z,4.38
2023-01-05T08:25:54.941Z,3.03
2023-01-05T08:28:40.644Z,5.60
2023-01-05T08:31:29.385Z,3.37
2023-01-05T08:34:14.876Z,5.85
2023-01-05T08:37:00.337Z,3.90
2023-01-05T08:39:45.715Z,3.75
2023-01-05T08:42:31.079Z,5.43
2023-01-05T08:45:16.794Z,4.57
2023-01-05T08:48:02.523Z,4.93
2023-01-05T08:50:48.144Z,2.67
2023-01-05T08:53:36.489Z,5.30
2023-01-05T08:56:25.150Z,4.07
2023-01-05T08:59:14.196Z,7.00
2023-01-05T09:01:59.746Z,3.20
2023-01-05T09:04:45.635Z,3.20
2023-01-05T09:07:31.250Z,4.78
2023-01-05T09:10:16.838Z,4.68
2023-01-05T09:13:02.216Z,2.70
2023-01-05T09:15:47.807Z,4.03
2023-01-05T09:18:33.061Z,4.85
2023-01-05T09:21:18.876Z,4.57
2023-01-05T09:24:04.516Z,4.38
2023-01-05T09:26:50.342Z,5.93
2023-01-05T09:29:35.723Z,3.40
2023-01-05T09:32:21.024Z,5.80
2023-01-05T09:35:06.657Z,6.35
2023-01-05T09:37:51.720Z,4.43
2023-01-05T09:40:43.286Z,5.63
2023-01-05T09:43:39.394Z,4.88
2023-01-05T09:46:30.377Z,9.70
2023-01-05T09:49:18.885Z,6.00
2023-01-05T09:52:09.435Z,5.80
2023-01-05T09:54:54.603Z,4.40
2023-01-05T09:57:40.386Z,3.75
2023-01-05T10:00:27.132Z,3.97
2023-01-05T10:03:53.198Z,2.95
2023-01-05T10:06:29.252Z,2.97
2023-01-05T10:09:21.672Z,4.97
2023-01-05T10:12:40.990Z,3.63
2023-01-05T10:15:27.523Z,3.50
2023-01-05T10:18:15.415Z,4.50
2023-01-05T10:21:14.755Z,3.38
2023-01-05T10:24:16.486Z,4.20
2023-01-05T10:27:26.470Z,4.63
2023-01-05T10:30:25.797Z,5.07
2023-01-05T10:33:26.835Z,4.30
2023-01-05T10:37:06.880Z,3.40
2023-01-05T10:40:09.717Z,3.67
2023-01-05T10:43:13.046Z,3.33
2023-01-05T10:46:29.917Z,3.92
2023-01-05T10:49:06.921Z,3.00
2023-01-05T10:51:56.508Z,3.92
2023-01-05T10:54:53.808Z,4.17
2023-01-05T10:57:40.807Z,2.92
2023-01-05T11:00:41.652Z,3.58
2023-01-05T11:04:14.834Z,3.53
2023-01-05T11:06:42.310Z,5.60
2023-01-05T11:09:27.294Z,3.67
2023-01-05T11:12:22.302Z,5.15
2023-01-05T11:15:15.216Z,5.60
2023-01-05T11:18:01.671Z,2.70
2023-01-05T11:21:10.621Z,3.17
2023-01-05T11:23:58.403Z,4.37
2023-01-05T11:26:52.611Z,3.92
2023-01-05T11:29:38.077Z,3.72
2023-01-05T11:32:23.048Z,3.20
2023-01-05T11:35:36.556Z,3.42
2023-01-05T11:38:25.576Z,2.57
2023-01-05T11:41:14.134Z,4.45
2023-01-05T11:44:03.164Z,4.65
2023-01-05T11:46:49.529Z,3.55
2023-01-05T11:49:35.825Z,4.55
2023-01-05T11:52:44.773Z,5.00
2023-01-05T11:55:35.797Z,3.30
2023-01-05T11:58:26.345Z,3.95
2023-01-05T12:01:42.902Z,2.63
2023-01-05T12:04:45.257Z,3.03
2023-01-05T12:07:34.294Z,4.20
2023-01-05T12:10:47.161Z,3.75
2023-01-05T12:13:48.700Z,3.92
2023-01-05T12:16:55.706Z,2.97
2023-01-05T12:19:53.069Z,4.00
2023-01-05T12:22:56.650Z,3.50
2023-01-05T12:26:20.582Z,4.75
2023-01-05T12:35:53.295Z,2.97
2023-01-05T12:38:50.474Z,4.00
2023-01-05T12:41:35.968Z,3.08
2023-01-05T12:44:41.795Z,3.45
2023-01-05T12:47:48.979Z,4.55
2023-01-05T12:50:36.994Z,3.35
2023-01-05T12:53:35.600Z,7.17
2023-01-05T12:56:27.334Z,7.05
2023-01-05T12:59:35.084Z,3.95
2023-01-05T13:02:37.076Z,9.60
2023-01-05T13:05:26.040Z,8.63
2023-01-05T13:08:20.592Z,8.13
2023-01-05T13:11:22.110Z,8.65
2023-01-05T13:14:19.742Z,11.77
2023-01-05T13:17:36.017Z,10.30
2023-01-05T13:20:38.422Z,10.88
2023-01-05T13:23:26.752Z,11.10
2023-01-05T13:26:16.208Z,11.77
2023-01-05T13:29:01.634Z,11.50
2023-01-05T13:31:59.159Z,13.15
2023-01-05T13:35:12.316Z,7.93
2023-01-05T13:38:26.656Z,9.40
2023-01-05T13:41:29.558Z,11.02
2023-01-05T13:44:29.971Z,9.93
2023-01-05T13:47:57.331Z,15.20
2023-01-05T13:50:53.086Z,8.20
2023-01-05T13:53:41.886Z,9.40
2023-01-05T13:56:30.405Z,9.05
2023-01-05T13:59:35.128Z,11.82
2023-01-05T14:02:34.275Z,12.02
2023-01-05T14:05:24.597Z,10.45
2023-01-05T14:08:21.467Z,10.47
2023-01-05T14:11:12.018Z,8.80
2023-01-05T14:14:08.440Z,11.52
2023-01-05T14:16:54.630Z,10.40
2023-01-05T14:19:39.917Z,9.77
2023-01-05T14:22:35.630Z,9.87
2023-01-05T14:25:47.128Z,8.23
2023-01-05T14:28:35.373Z,11.07
2023-01-05T14:31:26.030Z,7.22
2023-01-05T14:34:16.932Z,10.63
2023-01-05T14:37:06.027Z,10.80
2023-01-05T14:39:53.320Z,8.13
2023-01-05T14:42:39.871Z,16.20
2023-01-05T14:45:29.540Z,9.90
2023-01-05T14:48:39.321Z,13.07
2023-01-05T14:51:29.481Z,8.77
2023-01-05T14:54:14.696Z,9.52
2023-01-05T14:57:21.888Z,8.40
2023-01-05T15:00:16.056Z,9.73
2023-01-05T15:03:20.318Z,11.13
2023-01-05T15:06:15.608Z,7.00
2023-01-05T15:09:35.113Z,8.07
2023-01-05T15:12:29.297Z,7.40
2023-01-05T15:15:26.587Z,7.18
2023-01-05T15:18:39.039Z,6.90
2023-01-05T15:21:33.719Z,6.27
2023-01-05T15:24:53.096Z,7.82
2023-01-05T15:28:29.412Z,6.22
2023-01-05T15:31:32.773Z,6.40
2023-01-05T15:34:38.783Z,6.95
2023-01-05T15:37:34.467Z,7.70
2023-01-05T15:40:22.630Z,6.43
2023-01-05T15:43:16.087Z,5.18
2023-01-05T15:46:01.723Z,5.20
2023-01-05T15:48:51.967Z,5.93
2023-01-05T15:51:37.741Z,8.53
2023-01-05T15:54:29.013Z,6.85
2023-01-05T15:57:21.476Z,5.68
2023-01-05T16:00:23.292Z,5.78
2023-01-05T16:03:21.514Z,7.97
2023-01-05T16:06:11.510Z,6.10
2023-01-05T16:09:07.448Z,5.93
2023-01-05T16:11:58.609Z,3.83
2023-01-05T16:14:46.831Z,5.32
2023-01-05T16:17:37.652Z,6.70
2023-01-05T16:20:24.951Z,7.87
2023-01-05T16:23:16.999Z,5.63
2023-01-05T16:26:03.414Z,6.00
2023-01-05T16:28:48.816Z,4.78
2023-01-05T16:31:40.193Z,7.50
2023-01-05T16:34:29.471Z,5.13
2023-01-05T16:37:18.933Z,8.95
2023-01-05T16:40:05.321Z,4.30
2023-01-05T16:42:52.372Z,5.97
2023-01-05T16:45:37.662Z,6.25
2023-01-05T16:48:35.082Z,6.40
2023-01-05T16:51:32.387Z,4.03
2023-01-05T16:54:22.872Z,4.93
2023-01-05T16:57:40.549Z,4.88
2023-01-05T17:00:25.882Z,7.68
2023-01-05T17:03:31.292Z,6.47
2023-01-05T17:06:22.669Z,6.68
2023-01-05T17:09:23.785Z,4.70
2023-01-05T17:12:11.725Z,8.65
2023-01-05T17:15:00.928Z,6.40
2023-01-05T17:17:46.495Z,5.37
2023-01-05T17:23:31.855Z,5.50
2023-01-05T17:26:34.190Z,4.85
2023-01-05T17:29:22.930Z,5.93
2023-01-05T17:32:11.066Z,6.77
2023-01-05T17:34:56.467Z,5.55
2023-01-05T17:37:41.425Z,8.02
2023-01-05T17:40:28.444Z,5.40
2023-01-05T17:43:13.707Z,5.80
2023-01-05T17:45:59.062Z,4.97
2023-01-05T17:48:44.707Z,5.65
2023-01-05T17:51:30.533Z,6.07
2023-01-05T17:54:16.003Z,5.72
2023-01-05T17:57:01.241Z,5.90
2023-01-05T17:59:46.446Z,4.90
2023-01-05T18:02:31.512Z,8.00
2023-01-05T18:05:17.411Z,12.13
2023-01-05T18:08:02.702Z,6.95
2023-01-05T18:10:48.038Z,9.13
2023-01-05T18:13:34.486Z,6.53
2023-01-05T18:16:19.968Z,7.72
2023-01-05T18:19:05.076Z,7.10
2023-01-05T18:21:50.597Z,6.75
2023-01-05T18:24:35.787Z,11.75
2023-01-05T18:27:21.080Z,7.17
2023-01-05T18:30:07.930Z,12.60
2023-01-05T18:32:53.109Z,6.25
2023-01-05T18:35:43.768Z,10.05
2023-01-05T18:38:28.904Z,5.88
2023-01-05T18:41:13.867Z,9.83
2023-01-05T18:43:59.091Z,8.68
2023-01-05T18:46:44.791Z,7.03
2023-01-05T18:49:30.073Z,5.68
2023-01-05T18:52:15.296Z,9.07
2023-01-05T18:55:01.349Z,5.70
2023-01-05T18:57:46.738Z,7.30
2023-01-05T19:00:33.152Z,7.82
2023-01-05T19:03:18.388Z,7.45
2023-01-05T19:06:13.375Z,7.43
2023-01-05T19:09:03.095Z,6.20
2023-01-05T19:11:48.871Z,6.00
2023-01-05T19:14:34.332Z,5.28
2023-01-05T19:17:19.725Z,8.85
2023-01-05T19:20:05.987Z,6.60
2023-01-05T19:22:51.674Z,6.77
2023-01-05T19:25:36.997Z,6.75
2023-01-05T19:28:21.875Z,6.55
2023-01-05T19:31:12.191Z,8.02
2023-01-05T19:34:00.350Z,6.05
2023-01-05T19:36:46.100Z,6.43
2023-01-05T19:39:31.102Z,6.00
2023-01-05T19:42:16.216Z,6.95
2023-01-05T19:45:03.500Z,6.38
2023-01-05T19:47:48.490Z,6.50
2023-01-05T19:50:33.365Z,9.23
2023-01-05T19:53:18.396Z,5.88
2023-01-05T19:56:08.607Z,8.63
2023-01-05T19:58:59.761Z,7.80
2023-01-05T20:01:45.384Z,6.22
2023-01-05T20:04:31.732Z,6.53
2023-01-05T20:07:16.977Z,7.30
2023-01-05T20:10:01.882Z,6.10
2023-01-05T20:12:47.232Z,8.30
2023-01-05T20:15:34.445Z,7.75
2023-01-05T20:18:19.549Z,7.23
2023-01-05T20:21:07.093Z,8.25
2023-01-05T20:23:52.662Z,5.80
2023-01-05T20:26:38.005Z,6.28
2023-01-05T20:29:24.738Z,8.77
2023-01-05T20:32:20.421Z,5.13
2023-01-05T20:35:06.175Z,7.60
2023-01-05T20:37:54.136Z,10.95
2023-01-05T20:40:39.442Z,8.82
2023-01-05T20:43:24.741Z,6.95
2023-01-05T20:46:10.307Z,8.13
2023-01-05T20:48:56.586Z,7.70
2023-01-05T20:51:42.192Z,7.53
2023-01-05T20:54:27.791Z,6.28
2023-01-05T20:57:13.233Z,7.07
2023-01-05T20:59:58.333Z,8.33
2023-01-05T21:02:45.234Z,5.55
2023-01-05T21:05:30.245Z,6.32
2023-01-05T21:08:15.843Z,7.60
2023-01-05T21:11:02.237Z,7.60
2023-01-05T21:13:49.741Z,8.07
2023-01-05T21:16:42.769Z,9.75
2023-01-05T21:19:28.176Z,6.63
2023-01-05T21:22:14.001Z,8.73
2023-01-05T21:25:00.264Z,7.85
2023-01-05T21:27:45.521Z,8.07
2023-01-05T21:30:30.419Z,5.88
2023-01-05T21:33:15.475Z,7.35
2023-01-05T21:36:00.714Z,7.15
2023-01-05T21:39:02.438Z,7.75
2023-01-05T21:42:08.812Z,8.20
2023-01-05T21:44:54.104Z,5.47
2023-01-05T21:47:39.306Z,5.63
2023-01-05T21:51:03.874Z,8.88
2023-01-05T21:54:08.762Z,6.47
2023-01-05T21:56:54.488Z,9.90
2023-01-05T21:59:40.412Z,4.40
2023-01-05T22:02:25.720Z,8.50
2023-01-05T22:05:10.561Z,5.45
2023-01-05T22:07:55.556Z,5.07
2023-01-05T22:10:40.644Z,4.73
2023-01-05T22:13:26.308Z,7.07
2023-01-05T22:16:11.446Z,4.90
2023-01-05T22:18:56.608Z,5.30
2023-01-05T22:21:42.147Z,4.80
2023-01-05T22:24:27.264Z,5.67
2023-01-05T22:27:12.849Z,6.88
2023-01-05T22:29:58.170Z,6.47
2023-01-05T22:32:43.168Z,5.05
2023-01-05T22:35:28.243Z,6.10
2023-01-05T22:38:13.683Z,4.47
2023-01-05T22:40:59.896Z,9.68
2023-01-05T22:43:45.946Z,6.75
2023-01-05T22:46:31.610Z,6.28
2023-01-05T22:49:16.823Z,7.03
2023-01-05T22:52:02.824Z,7.33
2023-01-05T22:54:48.175Z,6.68
2023-01-05T22:57:33.116Z,7.75
2023-01-05T23:00:18.745Z,9.57
2023-01-05T23:03:04.003Z,7.88
2023-01-05T23:05:49.149Z,6.23
2023-01-05T23:08:36.209Z,8.93
2023-01-05T23:11:24.919Z,5.72
2023-01-05T23:14:11.569Z,5.88
2023-01-05T23:16:57.007Z,7.20
2023-01-05T23:19:42.219Z,6.90
2023-01-05T23:22:27.473Z,6.40
2023-01-05T23:25:12.480Z,9.63
2023-01-05T23:27:57.630Z,7.88
2023-01-05T23:30:42.637Z,6.68
2023-01-05T23:33:31.653Z,6.33
2023-01-05T23:36:18.094Z,4.88
2023-01-05T23:39:03.385Z,7.22
2023-01-05T23:41:48.457Z,5.18
2023-01-05T23:44:33.628Z,8.20
2023-01-05T23:47:18.644Z,9.57
2023-01-05T23:50:04.109Z,4.32
2023-01-05T23:52:49.178Z,7.88
2023-01-05T23:55:34.437Z,8.02
2023-01-05T23:58:19.674Z,5.82
